createdAt,value
2022-09-30T00:00:04.781Z,2.50
2022-09-30T00:00:25.834Z,2.42
2022-09-30T00:00:43.419Z,2.42
2022-09-30T00:01:00.141Z,2.92
2022-09-30T00:01:16.713Z,2.78
2022-09-30T00:01:33.841Z,2.67
2022-09-30T00:01:50.929Z,2.30
2022-09-30T00:02:10.315Z,2.20
2022-09-30T00:02:27.049Z,2.55
2022-09-30T00:02:43.705Z,2.38
2022-09-30T00:03:00.341Z,2.65
2022-09-30T00:03:18.118Z,2.33
2022-09-30T00:03:36.839Z,2.33
2022-09-30T00:03:54.412Z,2.55
2022-09-30T00:04:13.845Z,2.50
2022-09-30T00:04:30.566Z,2.17
2022-09-30T00:04:47.192Z,2.10
2022-09-30T00:05:04.899Z,2.42
2022-09-30T00:05:22.495Z,2.85
2022-09-30T00:05:39.066Z,2.50
2022-09-30T00:05:57.747Z,2.53
2022-09-30T00:06:14.356Z,2.80
2022-09-30T00:06:31.834Z,2.42
2022-09-30T00:06:49.788Z,2.33
2022-09-30T00:07:06.393Z,2.63
2022-09-30T00:07:23.988Z,2.75
2022-09-30T00:07:40.595Z,2.55
2022-09-30T00:07:57.224Z,2.40
2022-09-30T00:08:14.803Z,2.63
2022-09-30T00:08:31.450Z,2.72
2022-09-30T00:08:48.306Z,2.80
2022-09-30T00:09:05.230Z,2.83
2022-09-30T00:09:23.430Z,2.83
2022-09-30T00:09:43.015Z,2.78
2022-09-30T00:09:59.649Z,2.38
2022-09-30T00:10:17.282Z,2.40
2022-09-30T00:10:33.916Z,2.72
2022-09-30T00:10:58.408Z,2.55
2022-09-30T00:11:17.636Z,2.84
2022-09-30T00:11:35.186Z,2.85
2022-09-30T00:11:51.767Z,2.60
2022-09-30T00:12:08.456Z,2.85
2022-09-30T00:12:27.209Z,2.80
2022-09-30T00:12:44.842Z,2.70
2022-09-30T00:13:01.813Z,2.83
2022-09-30T00:13:18.386Z,2.60
2022-09-30T00:13:36.590Z,2.30
2022-09-30T00:13:53.460Z,2.72
2022-09-30T00:14:13.180Z,2.90
2022-09-30T00:14:30.821Z,2.60
2022-09-30T00:14:47.399Z,2.72
2022-09-30T00:15:04.575Z,2.97
2022-09-30T00:15:21.247Z,3.00
2022-09-30T00:15:37.923Z,2.45
2022-09-30T00:15:54.592Z,2.42
2022-09-30T00:16:13.382Z,2.35
2022-09-30T00:16:31.606Z,2.30
2022-09-30T00:16:48.445Z,2.42
2022-09-30T00:17:05.011Z,2.60
2022-09-30T00:17:22.597Z,2.17
2022-09-30T00:17:39.186Z,2.08
2022-09-30T00:17:55.781Z,2.00
2022-09-30T00:18:12.543Z,2.25
2022-09-30T00:18:29.528Z,2.50
2022-09-30T00:18:46.097Z,2.33
2022-09-30T00:19:04.250Z,2.45
2022-09-30T00:19:21.922Z,2.80
2022-09-30T00:19:38.628Z,2.72
2022-09-30T00:19:55.202Z,2.83
2022-09-30T00:20:11.817Z,2.80
2022-09-30T00:20:28.500Z,2.38
2022-09-30T00:20:45.080Z,2.45
2022-09-30T00:21:04.511Z,2.63
2022-09-30T00:21:21.086Z,2.58
2022-09-30T00:21:37.878Z,2.40
2022-09-30T00:21:54.473Z,2.30
2022-09-30T00:22:11.127Z,2.50
2022-09-30T00:22:27.713Z,2.83
2022-09-30T00:22:45.530Z,2.90
2022-09-30T00:23:02.112Z,2.80
2022-09-30T00:23:18.743Z,2.70
2022-09-30T00:23:36.278Z,3.05
2022-09-30T00:23:52.845Z,2.75
2022-09-30T00:24:09.647Z,2.70
2022-09-30T00:24:27.232Z,2.58
2022-09-30T00:24:43.864Z,3.15
2022-09-30T00:25:00.437Z,3.00
2022-09-30T00:25:17.156Z,2.40
2022-09-30T00:25:33.788Z,2.45
2022-09-30T00:25:50.516Z,2.42
2022-09-30T00:26:09.444Z,2.53
2022-09-30T00:26:26.121Z,2.72
2022-09-30T00:26:42.770Z,2.35
2022-09-30T00:26:59.337Z,2.00
2022-09-30T00:27:18.132Z,2.47
2022-09-30T00:27:35.722Z,2.53
2022-09-30T00:27:52.310Z,2.30
2022-09-30T00:28:08.897Z,2.55
2022-09-30T00:28:25.577Z,2.63
2022-09-30T00:28:42.930Z,2.80
2022-09-30T00:29:01.325Z,2.70
2022-09-30T00:29:17.936Z,2.90
2022-09-30T00:29:34.556Z,2.88
2022-09-30T00:29:51.213Z,2.42
2022-09-30T00:30:08.281Z,2.58
2022-09-30T00:30:24.901Z,2.40
2022-09-30T00:30:41.536Z,2.40
2022-09-30T00:31:01.229Z,2.60
2022-09-30T00:31:19.713Z,2.50
2022-09-30T00:31:36.387Z,2.70
2022-09-30T00:31:53.048Z,2.88
2022-09-30T00:32:09.687Z,2.70
2022-09-30T00:32:27.375Z,2.45
2022-09-30T00:32:43.958Z,2.55
2022-09-30T00:33:00.541Z,2.55
2022-09-30T00:33:17.104Z,2.38
2022-09-30T00:33:34.063Z,2.63
2022-09-30T00:34:05.572Z,2.45
2022-09-30T00:34:23.140Z,3.00
2022-09-30T00:34:42.426Z,2.55
2022-09-30T00:34:58.979Z,2.40
2022-09-30T00:35:20.434Z,2.60
2022-09-30T00:35:38.964Z,2.70
2022-09-30T00:35:56.530Z,2.75
2022-09-30T00:36:14.493Z,2.58
2022-09-30T00:36:31.161Z,2.53
2022-09-30T00:36:48.402Z,2.95
2022-09-30T00:37:05.110Z,2.83
2022-09-30T00:37:22.663Z,2.85
2022-09-30T00:37:39.257Z,3.08
2022-09-30T00:37:55.827Z,2.80
2022-09-30T00:38:12.396Z,2.67
2022-09-30T00:38:29.003Z,2.45
2022-09-30T00:38:46.560Z,2.00
2022-09-30T00:39:04.587Z,2.30
2022-09-30T00:39:21.865Z,2.72
2022-09-30T00:39:38.502Z,2.33
2022-09-30T00:39:55.078Z,2.38
2022-09-30T00:40:12.653Z,2.85
2022-09-30T00:40:30.131Z,2.75
2022-09-30T00:40:46.751Z,2.55
2022-09-30T00:41:03.527Z,2.53
2022-09-30T00:41:20.085Z,2.50
2022-09-30T00:41:37.533Z,2.60
2022-09-30T00:41:57.470Z,2.33
2022-09-30T00:42:14.659Z,2.70
2022-09-30T00:42:31.661Z,2.35
2022-09-30T00:42:48.275Z,2.20
2022-09-30T00:43:06.094Z,2.58
2022-09-30T00:43:37.553Z,2.35
2022-09-30T00:43:55.179Z,2.70
2022-09-30T00:44:30.628Z,2.63
2022-09-30T00:44:51.771Z,2.58
2022-09-30T00:45:11.929Z,2.70
2022-09-30T00:45:29.496Z,2.80
2022-09-30T00:45:49.654Z,2.80
2022-09-30T00:46:06.379Z,2.72
2022-09-30T00:46:27.657Z,2.92
2022-09-30T00:46:45.104Z,2.55
2022-09-30T00:47:02.147Z,2.55
2022-09-30T00:47:38.101Z,2.83
2022-09-30T00:47:55.161Z,3.00
2022-09-30T00:48:12.941Z,2.92
2022-09-30T00:48:31.353Z,3.60
2022-09-30T00:48:50.881Z,3.40
2022-09-30T00:49:13.310Z,3.92
2022-09-30T00:49:29.981Z,3.65
2022-09-30T00:49:46.611Z,3.05
2022-09-30T00:50:05.692Z,2.95
2022-09-30T00:50:31.768Z,2.85
2022-09-30T00:50:49.614Z,2.72
2022-09-30T00:51:08.739Z,3.03
2022-09-30T00:51:31.387Z,3.03
2022-09-30T00:51:49.142Z,3.53
2022-09-30T00:52:05.734Z,3.53
2022-09-30T00:52:22.523Z,3.28
2022-09-30T00:52:39.186Z,3.25
2022-09-30T00:53:00.311Z,3.15
2022-09-30T00:53:18.788Z,3.08
2022-09-30T00:53:39.301Z,2.70
2022-09-30T00:53:57.251Z,2.45
2022-09-30T00:54:17.021Z,3.13
2022-09-30T00:54:34.609Z,3.20
2022-09-30T00:54:51.720Z,2.50
2022-09-30T00:55:09.716Z,2.55
2022-09-30T00:55:38.038Z,2.95
2022-09-30T00:55:58.614Z,2.63
2022-09-30T00:56:17.547Z,2.72
2022-09-30T00:56:37.110Z,2.85
2022-09-30T00:56:55.768Z,3.17
2022-09-30T00:57:12.589Z,3.42
2022-09-30T00:57:30.511Z,3.00
2022-09-30T00:57:47.130Z,3.00
2022-09-30T00:58:04.695Z,3.22
2022-09-30T00:58:25.229Z,2.97
2022-09-30T00:58:45.661Z,2.70
2022-09-30T00:59:03.332Z,2.88
2022-09-30T00:59:24.126Z,3.17
2022-09-30T00:59:42.842Z,3.30
2022-09-30T01:00:00.175Z,3.10
2022-09-30T01:00:16.907Z,2.90
2022-09-30T01:00:34.592Z,3.33
2022-09-30T01:00:52.012Z,3.80
2022-09-30T01:01:10.021Z,3.72
2022-09-30T01:01:27.150Z,3.67
2022-09-30T01:01:43.879Z,3.40
2022-09-30T01:02:02.006Z,3.30
2022-09-30T01:02:18.690Z,3.45
2022-09-30T01:02:36.427Z,3.60
2022-09-30T01:02:53.615Z,3.40
2022-09-30T01:03:10.255Z,3.42
2022-09-30T01:03:29.966Z,3.15
2022-09-30T01:03:49.959Z,3.50
2022-09-30T01:04:10.303Z,3.47
2022-09-30T01:04:29.542Z,3.00
2022-09-30T01:04:46.813Z,3.08
2022-09-30T01:05:03.597Z,2.80
2022-09-30T01:05:21.270Z,2.88
2022-09-30T01:05:37.961Z,3.30
2022-09-30T01:05:54.556Z,3.16
2022-09-30T01:06:11.140Z,3.30
2022-09-30T01:06:29.350Z,3.03
2022-09-30T01:06:47.168Z,3.30
2022-09-30T01:07:05.331Z,3.10
2022-09-30T01:07:23.084Z,2.60
2022-09-30T01:07:39.632Z,2.60
2022-09-30T01:07:58.039Z,2.78
2022-09-30T01:08:18.122Z,2.80
2022-09-30T01:08:36.230Z,2.33
2022-09-30T01:08:53.078Z,2.55
2022-09-30T01:09:10.456Z,2.75
2022-09-30T01:09:27.235Z,2.63
2022-09-30T01:09:44.687Z,2.58
2022-09-30T01:10:03.130Z,2.83
2022-09-30T01:10:19.728Z,2.88
2022-09-30T01:10:37.204Z,2.63
2022-09-30T01:10:53.770Z,2.65
2022-09-30T01:11:11.355Z,2.70
2022-09-30T01:11:28.473Z,2.76
2022-09-30T01:11:45.248Z,2.78
2022-09-30T01:12:03.982Z,2.97
2022-09-30T01:12:22.343Z,3.03
2022-09-30T01:12:42.442Z,3.20
2022-09-30T01:13:00.324Z,2.70
2022-09-30T01:13:18.067Z,2.40
2022-09-30T01:13:35.172Z,2.20
2022-09-30T01:13:54.143Z,2.22
2022-09-30T01:14:13.242Z,2.38
2022-09-30T01:14:30.876Z,2.20
2022-09-30T01:14:48.991Z,2.38
2022-09-30T01:15:06.198Z,2.67
2022-09-30T01:15:28.630Z,2.55
2022-09-30T01:15:52.903Z,2.40
2022-09-30T01:16:16.986Z,2.38
2022-09-30T01:16:40.929Z,2.58
2022-09-30T01:17:01.180Z,3.03
2022-09-30T01:17:20.835Z,2.53
2022-09-30T01:17:42.412Z,2.67
2022-09-30T01:18:03.521Z,2.95
2022-09-30T01:18:24.926Z,2.67
2022-09-30T01:18:51.169Z,2.53
2022-09-30T01:19:28.741Z,2.60
2022-09-30T01:20:06.577Z,2.50
2022-09-30T01:20:42.052Z,2.65
2022-09-30T01:21:09.990Z,2.75
2022-09-30T01:21:57.510Z,2.65
2022-09-30T01:22:18.528Z,2.50
2022-09-30T01:22:42.216Z,2.65
2022-09-30T01:23:06.534Z,3.30
2022-09-30T01:23:43.796Z,2.60
2022-09-30T01:24:09.541Z,2.60
2022-09-30T01:24:38.688Z,2.67
2022-09-30T01:25:22.886Z,2.38
2022-09-30T01:25:56.157Z,2.72
2022-09-30T01:26:25.815Z,2.75
2022-09-30T01:27:07.205Z,2.50
2022-09-30T01:27:32.364Z,2.30
2022-09-30T01:28:11.541Z,2.40
2022-09-30T01:28:49.698Z,2.95
2022-09-30T01:29:15.071Z,2.55
2022-09-30T01:30:00.603Z,3.10
2022-09-30T01:30:21.308Z,2.60
2022-09-30T01:30:48.497Z,2.75
2022-09-30T01:31:10.033Z,2.72
2022-09-30T01:31:31.732Z,2.42
2022-09-30T01:31:54.520Z,2.32
2022-09-30T01:32:17.953Z,2.47
2022-09-30T01:33:01.451Z,2.47
2022-09-30T01:33:22.413Z,2.63
2022-09-30T01:33:43.923Z,2.33
2022-09-30T01:34:05.400Z,2.08
2022-09-30T01:34:28.271Z,2.40
2022-09-30T01:34:48.904Z,2.45
2022-09-30T01:35:11.986Z,2.25
2022-09-30T01:35:35.716Z,2.30
2022-09-30T01:36:07.135Z,2.80
2022-09-30T01:36:28.561Z,3.20
2022-09-30T01:36:50.830Z,2.60
2022-09-30T01:37:10.596Z,2.70
2022-09-30T01:37:31.352Z,2.90
2022-09-30T01:37:55.806Z,2.70
2022-09-30T01:38:13.779Z,2.40
2022-09-30T01:38:33.793Z,2.40
2022-09-30T01:38:56.702Z,2.53
2022-09-30T01:39:20.284Z,2.20
2022-09-30T01:39:40.134Z,2.33
2022-09-30T01:40:00.933Z,2.50
2022-09-30T01:40:23.437Z,2.30
2022-09-30T01:40:43.452Z,2.38
2022-09-30T01:41:04.513Z,2.38
2022-09-30T01:41:23.328Z,2.45
2022-09-30T01:41:44.572Z,2.53
2022-09-30T01:42:11.085Z,2.60
2022-09-30T01:42:34.790Z,2.60
2022-09-30T01:42:54.813Z,2.83
2022-09-30T01:43:14.234Z,2.75
2022-09-30T01:43:37.338Z,2.63
2022-09-30T01:43:58.274Z,2.70
2022-09-30T01:44:16.356Z,2.85
2022-09-30T01:44:35.892Z,2.70
2022-09-30T01:44:58.604Z,2.78
2022-09-30T01:45:19.436Z,2.97
2022-09-30T01:45:39.313Z,2.92
2022-09-30T01:45:59.041Z,2.70
2022-09-30T01:46:21.657Z,2.84
2022-09-30T01:46:44.106Z,2.58
2022-09-30T01:47:03.117Z,2.40
2022-09-30T01:47:24.992Z,2.40
2022-09-30T01:47:43.507Z,2.88
2022-09-30T01:48:02.315Z,2.78
2022-09-30T01:48:23.106Z,2.45
2022-09-30T01:48:43.318Z,2.55
2022-09-30T01:49:05.238Z,2.60
2022-09-30T01:49:27.039Z,2.88
2022-09-30T01:49:46.907Z,3.20
2022-09-30T01:50:05.946Z,3.00
2022-09-30T01:50:25.262Z,2.60
2022-09-30T01:50:44.858Z,2.95
2022-09-30T01:51:03.806Z,3.22
2022-09-30T01:51:25.187Z,2.53
2022-09-30T01:51:43.521Z,2.83
2022-09-30T01:52:04.301Z,3.10
2022-09-30T01:52:23.095Z,2.70
2022-09-30T01:52:42.052Z,3.10
2022-09-30T01:53:03.961Z,3.53
2022-09-30T01:53:23.549Z,3.35
2022-09-30T01:53:44.901Z,2.95
2022-09-30T01:54:03.395Z,3.08
2022-09-30T01:54:23.912Z,3.53
2022-09-30T01:54:42.412Z,3.42
2022-09-30T01:55:01.037Z,3.28
2022-09-30T01:55:23.125Z,2.80
2022-09-30T01:55:43.013Z,3.20
2022-09-30T01:56:01.961Z,3.50
2022-09-30T01:56:21.036Z,3.58
2022-09-30T01:56:41.763Z,3.40
2022-09-30T01:57:01.691Z,2.90
2022-09-30T01:57:21.053Z,2.75
2022-09-30T01:57:42.276Z,2.88
2022-09-30T01:58:02.904Z,3.15
2022-09-30T01:58:22.519Z,3.00
2022-09-30T01:58:40.813Z,3.15
2022-09-30T01:59:01.552Z,3.20
2022-09-30T01:59:21.011Z,3.05
2022-09-30T01:59:39.881Z,3.55
2022-09-30T01:59:58.378Z,3.33
2022-09-30T02:00:43.569Z,3.30
2022-09-30T02:01:06.094Z,3.08
2022-09-30T02:01:25.463Z,3.33
2022-09-30T02:01:46.803Z,3.25
2022-09-30T02:02:06.798Z,2.55
2022-09-30T02:02:25.748Z,2.72
2022-09-30T02:02:48.520Z,2.65
2022-09-30T02:03:09.303Z,2.88
2022-09-30T02:03:29.025Z,2.90
2022-09-30T02:03:48.770Z,2.80
2022-09-30T02:04:08.719Z,2.65
2022-09-30T02:04:28.147Z,2.53
2022-09-30T02:04:47.194Z,2.70
2022-09-30T02:05:07.121Z,2.97
2022-09-30T02:05:26.808Z,3.30
2022-09-30T02:05:50.760Z,3.10
2022-09-30T02:06:08.699Z,3.15
2022-09-30T02:06:26.676Z,3.13
2022-09-30T02:06:47.997Z,2.92
2022-09-30T02:07:06.428Z,3.35
2022-09-30T02:07:26.317Z,3.25
2022-09-30T02:07:45.436Z,3.20
2022-09-30T02:08:04.807Z,3.10
2022-09-30T02:08:23.388Z,3.13
2022-09-30T02:08:42.224Z,2.92
2022-09-30T02:09:03.466Z,2.83
2022-09-30T02:09:22.978Z,3.05
2022-09-30T02:09:41.863Z,2.88
2022-09-30T02:10:00.471Z,3.08
2022-09-30T02:10:19.975Z,2.92
2022-09-30T02:10:44.816Z,2.75
2022-09-30T02:11:04.531Z,2.95
2022-09-30T02:11:24.947Z,2.80
2022-09-30T02:11:42.417Z,2.95
2022-09-30T02:11:59.706Z,2.75
2022-09-30T02:12:20.447Z,2.70
2022-09-30T02:12:38.828Z,3.28
2022-09-30T02:12:57.619Z,3.40
2022-09-30T02:13:16.915Z,2.60
2022-09-30T02:13:37.230Z,2.50
2022-09-30T02:13:57.177Z,2.70
2022-09-30T02:14:16.594Z,3.30
2022-09-30T02:14:35.971Z,3.08
2022-09-30T02:14:55.646Z,2.70
2022-09-30T02:15:13.804Z,2.97
2022-09-30T02:15:39.693Z,3.13
2022-09-30T02:15:59.462Z,2.97
2022-09-30T02:16:21.643Z,3.60
2022-09-30T02:16:39.914Z,3.42
2022-09-30T02:17:02.148Z,3.60
2022-09-30T02:17:21.780Z,3.40
2022-09-30T02:17:43.107Z,3.30
2022-09-30T02:18:01.390Z,2.70
2022-09-30T02:18:22.118Z,2.88
2022-09-30T02:18:41.452Z,3.33
2022-09-30T02:19:02.129Z,3.30
2022-09-30T02:19:20.500Z,2.90
2022-09-30T02:19:38.868Z,2.88
2022-09-30T02:19:59.134Z,3.10
2022-09-30T02:20:17.625Z,2.97
2022-09-30T02:20:38.318Z,3.03
2022-09-30T02:20:58.029Z,3.00
2022-09-30T02:21:17.430Z,3.28
2022-09-30T02:21:36.414Z,3.12
2022-09-30T02:21:56.956Z,3.00
2022-09-30T02:22:14.770Z,2.95
2022-09-30T02:22:33.462Z,2.92
2022-09-30T02:22:52.031Z,2.95
2022-09-30T02:23:10.726Z,2.70
2022-09-30T02:23:29.585Z,3.20
2022-09-30T02:23:47.326Z,3.30
2022-09-30T02:24:05.615Z,3.40
2022-09-30T02:24:25.170Z,3.50
2022-09-30T02:24:44.707Z,3.17
2022-09-30T02:25:03.968Z,3.00
2022-09-30T02:25:23.002Z,2.90
2022-09-30T02:25:42.774Z,3.05
2022-09-30T02:26:05.910Z,3.30
2022-09-30T02:26:25.137Z,3.30
2022-09-30T02:26:42.867Z,3.17
2022-09-30T02:27:01.322Z,3.28
2022-09-30T02:27:19.768Z,3.28
2022-09-30T02:27:42.200Z,3.45
2022-09-30T02:27:59.902Z,3.40
2022-09-30T02:28:19.479Z,3.42
2022-09-30T02:28:38.240Z,3.22
2022-09-30T02:28:57.180Z,3.70
2022-09-30T02:29:16.493Z,3.33
2022-09-30T02:29:36.718Z,3.10
2022-09-30T02:29:55.692Z,3.03
2022-09-30T02:30:12.792Z,3.33
2022-09-30T02:30:29.724Z,3.50
2022-09-30T02:30:50.499Z,3.22
2022-09-30T02:31:08.525Z,3.20
2022-09-30T02:31:27.483Z,3.42
2022-09-30T02:31:44.965Z,3.45
2022-09-30T02:32:03.548Z,3.10
2022-09-30T02:32:22.969Z,3.47
2022-09-30T02:32:42.216Z,3.42
2022-09-30T02:33:00.184Z,3.45
2022-09-30T02:33:19.944Z,3.40
2022-09-30T02:33:38.803Z,3.13
2022-09-30T02:33:58.579Z,3.53
2022-09-30T02:34:16.417Z,3.50
2022-09-30T02:34:35.857Z,3.17
2022-09-30T02:34:53.778Z,3.30
2022-09-30T02:35:12.323Z,3.15
2022-09-30T02:35:31.688Z,3.47
2022-09-30T02:35:49.792Z,3.50
2022-09-30T02:36:08.449Z,3.17
2022-09-30T02:36:27.963Z,3.00
2022-09-30T02:36:46.954Z,2.78
2022-09-30T02:37:05.217Z,2.95
2022-09-30T02:37:26.316Z,2.83
2022-09-30T02:37:45.723Z,3.10
2022-09-30T02:38:03.533Z,3.30
2022-09-30T02:38:21.688Z,3.17
2022-09-30T02:38:41.035Z,3.03
2022-09-30T02:39:01.312Z,3.20
2022-09-30T02:39:22.770Z,3.22
2022-09-30T02:39:42.125Z,3.63
2022-09-30T02:40:03.476Z,3.60
2022-09-30T02:40:23.255Z,3.05
2022-09-30T02:40:43.852Z,3.20
2022-09-30T02:41:03.287Z,3.00
2022-09-30T02:41:22.490Z,3.15
2022-09-30T02:41:43.052Z,3.40
2022-09-30T02:42:03.639Z,3.03
2022-09-30T02:42:22.294Z,2.97
2022-09-30T02:42:39.471Z,3.13
2022-09-30T02:42:56.210Z,2.63
2022-09-30T02:43:12.793Z,2.83
2022-09-30T02:43:31.424Z,3.05
2022-09-30T02:43:48.258Z,2.97
2022-09-30T02:44:05.449Z,3.35
2022-09-30T02:44:22.318Z,3.42
2022-09-30T02:44:39.131Z,2.88
2022-09-30T02:44:58.125Z,2.90
2022-09-30T02:45:17.291Z,2.90
2022-09-30T02:45:39.220Z,2.72
2022-09-30T02:45:59.790Z,2.05
2022-09-30T02:46:23.795Z,2.03
2022-09-30T02:46:44.541Z,2.28
2022-09-30T02:47:07.454Z,2.20
2022-09-30T02:47:26.888Z,2.58
2022-09-30T02:47:49.136Z,3.35
2022-09-30T02:48:10.517Z,2.92
2022-09-30T02:48:29.357Z,2.42
2022-09-30T02:48:49.747Z,2.83
2022-09-30T02:49:07.930Z,3.10
2022-09-30T02:49:28.053Z,3.00
2022-09-30T02:49:47.175Z,2.78
2022-09-30T02:50:07.177Z,2.88
2022-09-30T02:50:31.287Z,3.33
2022-09-30T02:50:49.032Z,3.72
2022-09-30T02:51:11.242Z,3.47
2022-09-30T02:51:29.876Z,3.28
2022-09-30T02:51:53.952Z,3.42
2022-09-30T02:52:15.663Z,3.55
2022-09-30T02:52:37.236Z,3.78
2022-09-30T02:52:59.763Z,3.85
2022-09-30T02:53:19.750Z,3.22
2022-09-30T02:53:39.546Z,3.42
2022-09-30T02:54:02.416Z,3.85
2022-09-30T02:54:23.000Z,4.25
2022-09-30T02:54:44.506Z,4.25
2022-09-30T02:55:09.345Z,3.78
2022-09-30T02:55:28.936Z,3.53
2022-09-30T02:55:52.713Z,3.67
2022-09-30T02:56:12.972Z,3.60
2022-09-30T02:56:35.371Z,3.85
2022-09-30T02:56:54.907Z,4.10
2022-09-30T02:57:19.351Z,3.55
2022-09-30T02:57:38.063Z,3.67
2022-09-30T02:57:57.641Z,3.78
2022-09-30T02:58:16.959Z,3.88
2022-09-30T02:58:36.186Z,3.72
2022-09-30T02:58:56.151Z,3.88
2022-09-30T02:59:12.733Z,3.53
2022-09-30T02:59:29.269Z,3.45
2022-09-30T02:59:46.329Z,3.15
2022-09-30T03:00:08.921Z,3.08
2022-09-30T03:00:28.954Z,3.30
2022-09-30T03:00:45.572Z,3.38
2022-09-30T03:01:02.828Z,3.47
2022-09-30T03:01:19.651Z,3.40
2022-09-30T03:01:41.816Z,3.38
2022-09-30T03:01:59.756Z,3.28
2022-09-30T03:02:16.439Z,2.88
2022-09-30T03:02:33.037Z,3.03
2022-09-30T03:02:50.171Z,3.30
2022-09-30T03:03:12.122Z,3.15
2022-09-30T03:03:31.589Z,2.85
2022-09-30T03:03:49.826Z,3.17
2022-09-30T03:04:07.934Z,3.35
2022-09-30T03:04:25.516Z,3.45
2022-09-30T03:04:44.145Z,3.17
2022-09-30T03:05:00.770Z,3.38
2022-09-30T03:05:17.559Z,3.50
2022-09-30T03:05:34.127Z,3.53
2022-09-30T03:05:50.870Z,3.58
2022-09-30T03:06:07.556Z,3.42
2022-09-30T03:06:25.290Z,3.40
2022-09-30T03:06:41.991Z,3.30
2022-09-30T03:06:59.473Z,3.30
2022-09-30T03:07:16.121Z,3.85
2022-09-30T03:07:34.037Z,3.45
2022-09-30T03:07:51.629Z,3.20
2022-09-30T03:08:08.212Z,3.60
2022-09-30T03:08:25.604Z,3.85
2022-09-30T03:08:42.353Z,3.72
2022-09-30T03:08:58.972Z,3.28
2022-09-30T03:09:15.699Z,2.88
2022-09-30T03:09:35.692Z,3.22
2022-09-30T03:09:55.700Z,3.47
2022-09-30T03:10:13.491Z,3.03
2022-09-30T03:10:30.122Z,2.85
2022-09-30T03:10:50.784Z,3.28
2022-09-30T03:11:08.861Z,3.30
2022-09-30T03:11:27.270Z,3.28
2022-09-30T03:11:43.897Z,3.45
2022-09-30T03:12:06.405Z,3.15
2022-09-30T03:12:27.910Z,2.92
2022-09-30T03:12:53.901Z,3.48
2022-09-30T03:13:16.628Z,3.75
2022-09-30T03:13:49.492Z,3.78
2022-09-30T03:14:23.957Z,3.78
2022-09-30T03:14:46.356Z,3.20
2022-09-30T03:15:20.720Z,3.40
2022-09-30T03:15:45.135Z,3.05
2022-09-30T03:16:09.809Z,3.40
2022-09-30T03:16:37.647Z,3.55
2022-09-30T03:17:09.523Z,3.28
2022-09-30T03:17:40.224Z,3.22
2022-09-30T03:18:03.397Z,2.85
2022-09-30T03:18:29.229Z,3.13
2022-09-30T03:18:53.064Z,3.13
2022-09-30T03:19:17.176Z,3.08
2022-09-30T03:19:42.252Z,3.15
2022-09-30T03:20:18.469Z,3.05
2022-09-30T03:20:37.760Z,3.10
2022-09-30T03:21:01.861Z,3.17
2022-09-30T03:21:28.205Z,3.25
2022-09-30T03:21:51.853Z,3.30
2022-09-30T03:22:24.631Z,3.55
2022-09-30T03:22:47.527Z,3.33
2022-09-30T03:23:15.307Z,3.15
2022-09-30T03:23:39.844Z,3.53
2022-09-30T03:24:11.185Z,3.60
2022-09-30T03:24:37.656Z,2.95
2022-09-30T03:25:09.616Z,2.70
2022-09-30T03:25:32.006Z,2.75
2022-09-30T03:25:53.352Z,3.45
2022-09-30T03:26:14.769Z,3.58
2022-09-30T03:26:38.103Z,3.03
2022-09-30T03:27:00.184Z,2.67
2022-09-30T03:27:22.811Z,3.00
2022-09-30T03:27:42.945Z,3.03
2022-09-30T03:28:04.829Z,3.67
2022-09-30T03:28:26.167Z,2.90
2022-09-30T03:28:49.743Z,3.18
2022-09-30T03:29:11.592Z,3.13
2022-09-30T03:29:31.441Z,3.60
2022-09-30T03:29:52.166Z,3.28
2022-09-30T03:30:11.353Z,3.10
2022-09-30T03:30:29.032Z,2.83
2022-09-30T03:30:48.079Z,2.97
2022-09-30T03:31:07.721Z,3.40
2022-09-30T03:31:28.374Z,3.00
2022-09-30T03:31:52.657Z,3.45
2022-09-30T03:32:16.115Z,3.50
2022-09-30T03:32:38.352Z,3.60
2022-09-30T03:33:02.441Z,2.88
2022-09-30T03:33:23.868Z,3.20
2022-09-30T03:33:45.712Z,3.13
2022-09-30T03:34:05.205Z,3.30
2022-09-30T03:34:27.626Z,3.55
2022-09-30T03:34:55.372Z,3.60
2022-09-30T03:35:16.402Z,3.58
2022-09-30T03:35:38.079Z,3.63
2022-09-30T03:35:58.528Z,3.25
2022-09-30T03:36:20.983Z,3.40
2022-09-30T03:36:41.453Z,3.30
2022-09-30T03:37:04.297Z,3.55
2022-09-30T03:37:25.909Z,3.30
2022-09-30T03:37:46.615Z,3.38
2022-09-30T03:38:08.679Z,3.14
2022-09-30T03:38:29.503Z,3.42
2022-09-30T03:38:49.471Z,3.58
2022-09-30T03:39:10.567Z,3.67
2022-09-30T03:39:30.858Z,4.00
2022-09-30T03:39:53.611Z,3.47
2022-09-30T03:40:17.554Z,3.78
2022-09-30T03:40:37.797Z,3.60
2022-09-30T03:40:59.894Z,3.53
2022-09-30T03:41:19.855Z,3.50
2022-09-30T03:41:40.298Z,3.74
2022-09-30T03:41:58.558Z,3.47
2022-09-30T03:42:22.638Z,3.80
2022-09-30T03:42:44.526Z,4.10
2022-09-30T03:43:04.757Z,3.72
2022-09-30T03:43:25.728Z,3.47
2022-09-30T03:43:44.888Z,3.42
2022-09-30T03:44:04.540Z,3.67
2022-09-30T03:44:24.135Z,3.64
2022-09-30T03:44:42.845Z,3.72
2022-09-30T03:45:03.916Z,3.55
2022-09-30T03:45:24.577Z,3.85
2022-09-30T03:45:47.518Z,4.22
2022-09-30T03:46:07.493Z,4.07
2022-09-30T03:46:26.251Z,3.70
2022-09-30T03:46:44.935Z,3.53
2022-09-30T03:47:04.053Z,3.65
2022-09-30T03:47:22.458Z,4.10
2022-09-30T03:47:43.880Z,3.67
2022-09-30T03:48:03.191Z,3.20
2022-09-30T03:48:21.324Z,3.65
2022-09-30T03:48:38.399Z,3.72
2022-09-30T03:48:57.284Z,4.28
2022-09-30T03:49:15.846Z,3.85
2022-09-30T03:49:33.495Z,3.42
2022-09-30T03:49:51.972Z,3.70
2022-09-30T03:50:09.953Z,3.83
2022-09-30T03:50:29.251Z,4.00
2022-09-30T03:50:45.744Z,3.85
2022-09-30T03:51:03.450Z,3.72
2022-09-30T03:51:20.658Z,3.90
2022-09-30T03:51:38.163Z,4.10
2022-09-30T03:51:58.716Z,3.83
2022-09-30T03:52:15.985Z,3.72
2022-09-30T03:52:33.616Z,3.53
2022-09-30T03:52:50.245Z,3.45
2022-09-30T03:53:09.305Z,3.17
2022-09-30T03:53:28.487Z,3.00
2022-09-30T03:53:46.596Z,3.35
2022-09-30T03:54:06.633Z,4.00
2022-09-30T03:54:23.160Z,4.30
2022-09-30T03:54:45.104Z,3.67
2022-09-30T03:55:04.400Z,3.10
2022-09-30T03:55:22.513Z,3.80
2022-09-30T03:55:47.746Z,3.78
2022-09-30T03:56:04.366Z,3.58
2022-09-30T03:56:28.270Z,3.83
2022-09-30T03:56:45.749Z,3.75
2022-09-30T03:57:05.079Z,3.72
2022-09-30T03:57:21.552Z,3.90
2022-09-30T03:57:38.321Z,3.72
2022-09-30T03:57:54.821Z,3.65
2022-09-30T03:58:11.438Z,4.10
2022-09-30T03:58:28.919Z,3.67
2022-09-30T03:58:45.431Z,3.80
2022-09-30T03:59:01.974Z,3.88
2022-09-30T03:59:21.789Z,3.55
2022-09-30T03:59:38.365Z,3.75
2022-09-30T03:59:55.843Z,3.40
2022-09-30T04:00:13.134Z,3.10
2022-09-30T04:00:30.163Z,3.50
2022-09-30T04:00:48.774Z,3.63
2022-09-30T04:01:05.375Z,3.75
2022-09-30T04:01:23.200Z,3.60
2022-09-30T04:01:41.004Z,3.40
2022-09-30T04:01:57.593Z,2.90
2022-09-30T04:02:14.226Z,2.85
2022-09-30T04:02:32.479Z,3.10
2022-09-30T04:02:48.994Z,2.80
2022-09-30T04:03:05.571Z,3.00
2022-09-30T04:03:23.324Z,3.20
2022-09-30T04:03:40.005Z,3.28
2022-09-30T04:03:56.595Z,3.25
2022-09-30T04:04:13.364Z,3.38
2022-09-30T04:04:29.857Z,3.22
2022-09-30T04:04:47.649Z,3.35
2022-09-30T04:05:04.480Z,3.63
2022-09-30T04:05:20.979Z,3.70
2022-09-30T04:05:37.559Z,3.44
2022-09-30T04:05:55.116Z,3.50
2022-09-30T04:06:12.789Z,4.18
2022-09-30T04:06:29.311Z,4.07
2022-09-30T04:06:46.089Z,3.72
2022-09-30T04:07:02.581Z,4.07
2022-09-30T04:07:20.081Z,3.85
2022-09-30T04:07:36.602Z,3.90
2022-09-30T04:07:53.073Z,3.92
2022-09-30T04:08:10.017Z,3.35
2022-09-30T04:08:28.967Z,3.42
2022-09-30T04:08:48.597Z,3.30
2022-09-30T04:09:05.192Z,3.30
2022-09-30T04:09:21.955Z,3.70
2022-09-30T04:09:38.872Z,3.60
2022-09-30T04:09:56.273Z,3.67
2022-09-30T04:10:13.759Z,3.60
2022-09-30T04:10:30.278Z,4.03
2022-09-30T04:10:46.755Z,3.78
2022-09-30T04:11:03.757Z,3.45
2022-09-30T04:11:20.703Z,3.78
2022-09-30T04:11:38.155Z,3.80
2022-09-30T04:11:54.643Z,3.65
2022-09-30T04:12:11.170Z,3.85
2022-09-30T04:12:27.704Z,3.83
2022-09-30T04:12:44.236Z,3.75
2022-09-30T04:13:00.727Z,3.72
2022-09-30T04:13:18.187Z,3.60
2022-09-30T04:13:34.666Z,3.55
2022-09-30T04:13:51.152Z,3.88
2022-09-30T04:14:07.662Z,4.13
2022-09-30T04:14:24.206Z,4.03
2022-09-30T04:14:40.846Z,3.97
2022-09-30T04:14:58.309Z,4.10
2022-09-30T04:15:14.992Z,4.10
2022-09-30T04:15:31.457Z,3.90
2022-09-30T04:15:53.362Z,4.00
2022-09-30T04:16:10.963Z,3.78
2022-09-30T04:16:29.045Z,3.60
2022-09-30T04:16:45.636Z,3.72
2022-09-30T04:17:02.359Z,3.85
2022-09-30T04:17:18.897Z,3.72
2022-09-30T04:17:37.713Z,3.63
2022-09-30T04:17:54.235Z,3.90
2022-09-30T04:18:10.734Z,3.65
2022-09-30T04:18:27.588Z,3.18
2022-09-30T04:18:44.330Z,2.97
2022-09-30T04:19:02.099Z,2.80
2022-09-30T04:19:18.595Z,3.10
2022-09-30T04:19:39.858Z,4.05
2022-09-30T04:19:56.352Z,3.60
2022-09-30T04:20:12.940Z,3.70
2022-09-30T04:20:29.720Z,3.85
2022-09-30T04:20:47.197Z,3.25
2022-09-30T04:21:05.308Z,3.28
2022-09-30T04:21:21.777Z,3.75
2022-09-30T04:21:38.274Z,3.88
2022-09-30T04:21:56.089Z,3.60
2022-09-30T04:22:12.730Z,3.20